FDMS/MTS METAR and TAF weather

Enter ICAO airport designator
Station Type Date Time Source
FDMS METAR 2020/01/22 10:00 UTC NOAA

FDMS 221000Z 09006KT 9999 BKN030 24/16 Q1015 NOSIG


Station Type Date Time Source
FDMS Decoded METAR 2020/01/22 10:00 UTC NOAA

Manzini / Matsapa Airport, Swaziland (FDMS) 26-32S 031-18E
Jan 22, 2020 - 05:00 AM EST / 2020.01.22 1000 UTC
Wind: from the E (090 degrees) at 7 MPH (6 KT):0
Visibility: greater than 7 mile(s):0
Sky conditions: mostly cloudy
Temperature: 75 F (24 C)
Dew Point: 60 F (16 C)
Relative Humidity: 60%
Pressure (altimeter): 29.97 in. Hg (1015 hPa)
ob: FDMS 221000Z 09006KT 9999 BKN030 24/16 Q1015 NOSIG
cycle: 10

Station Type Date Time Source
FDMS TAF 2020/01/07 06:39 UTC NOAA

TAF TAF FDMS 070400Z 0706/0718 03007KT 9999 SCT035
BECMG 0712/0714 CAVOK

Example: see airport list